Time;durP1;ratioP1;P1;durP2;ratioP2;P2;SDS_P1;SDS_P2;PMS_P1;PMS_P2;Temp;Humidity;BMP_temperature;BMP_pressure;BME280_temperature;BME280_humidity;BME280_pressure;Samples;Min_cycle;Max_cycle;Signal;HPM_P1;HPM_P2
2023/05/24 00:02:07;;;;;;;18.08;12.23;;;;;;;;;;4981646;28;20062;-46
2023/05/24 00:04:33;;;;;;;17.65;12.38;;;;;;;;;;4985959;28;20077;-40
2023/05/24 00:07:02;;;;;;;22.17;12.82;;;;;;;;;;4982513;28;20038;-42
2023/05/24 00:09:28;;;;;;;15.07;12.50;;;;;;;;;;4983580;28;20368;-40
2023/05/24 00:11:54;;;;;;;14.85;12.27;;;;;;;;;;4986892;28;20038;-45
2023/05/24 00:14:19;;;;;;;21.15;12.80;;;;;;;;;;4985239;28;20096;-43
2023/05/24 00:16:45;;;;;;;15.77;12.20;;;;;;;;;;4984686;28;20049;-40
2023/05/24 00:19:10;;;;;;;14.65;12.25;;;;;;;;;;4985852;28;20480;-40
2023/05/24 00:21:36;;;;;;;16.13;12.98;;;;;;;;;;4982006;28;20043;-40
2023/05/24 00:24:01;;;;;;;13.63;12.32;;;;;;;;;;4985919;28;20031;-40
2023/05/24 00:26:26;;;;;;;14.90;12.32;;;;;;;;;;4984297;28;20400;-40
2023/05/24 00:28:52;;;;;;;14.88;12.63;;;;;;;;;;4984176;28;20369;-40
2023/05/24 00:31:17;;;;;;;17.02;12.13;;;;;;;;;;4984158;28;20047;-41
2023/05/24 00:33:43;;;;;;;15.70;13.25;;;;;;;;;;4986005;28;20141;-43
2023/05/24 00:36:08;;;;;;;13.60;12.18;;;;;;;;;;4982887;28;20403;-42
2023/05/24 00:38:34;;;;;;;16.75;12.18;;;;;;;;;;4982925;28;20031;-40
2023/05/24 00:41:00;;;;;;;18.05;11.43;;;;;;;;;;4983154;28;20559;-42
2023/05/24 00:43:25;;;;;;;14.15;11.75;;;;;;;;;;4984604;28;20101;-42
2023/05/24 00:46:23;;;;;;;18.23;12.27;;;;;;;;;;4982238;28;20504;-43
2023/05/24 00:48:49;;;;;;;16.52;12.55;;;;;;;;;;4983735;28;20039;-40
2023/05/24 00:51:15;;;;;;;15.48;12.45;;;;;;;;;;4983081;28;20042;-41
2023/05/24 00:53:44;;;;;;;14.90;12.55;;;;;;;;;;4980051;28;20403;-41
2023/05/24 00:56:12;;;;;;;15.07;12.13;;;;;;;;;;4982873;28;20096;-43
2023/05/24 00:58:38;;;;;;;15.20;11.60;;;;;;;;;;4983351;28;20764;-45
2023/05/24 01:01:04;;;;;;;16.42;12.15;;;;;;;;;;4986533;28;20049;-40
2023/05/24 01:03:30;;;;;;;16.15;11.90;;;;;;;;;;4987628;28;20027;-41
2023/05/24 01:05:57;;;;;;;17.38;11.88;;;;;;;;;;4984302;28;20037;-41
2023/05/24 01:08:38;;;;;;;13.05;11.75;;;;;;;;;;4980454;28;20040;-41
2023/05/24 01:11:19;;;;;;;15.98;12.02;;;;;;;;;;4983591;28;20074;-40
2023/05/24 01:13:58;;;;;;;13.40;11.68;;;;;;;;;;4986777;28;20026;-44
2023/05/24 01:16:26;;;;;;;19.10;11.55;;;;;;;;;;4983298;28;21268;-41
2023/05/24 01:18:55;;;;;;;13.45;11.10;;;;;;;;;;4986427;28;20076;-40
2023/05/24 01:21:48;;;;;;;15.40;11.57;;;;;;;;;;4988040;28;20046;-40
2023/05/24 01:24:29;;;;;;;14.52;11.73;;;;;;;;;;4984800;28;20507;-41
2023/05/24 01:27:10;;;;;;;14.05;11.73;;;;;;;;;;4984400;28;20042;-41
2023/05/24 01:29:37;;;;;;;14.05;11.45;;;;;;;;;;4987896;28;20050;-40
2023/05/24 01:32:02;;;;;;;13.20;11.57;;;;;;;;;;4986679;28;20053;-40
2023/05/24 01:34:28;;;;;;;12.85;11.55;;;;;;;;;;4986058;28;20022;-39
2023/05/24 01:36:53;;;;;;;13.75;11.50;;;;;;;;;;4985572;28;20073;-39
2023/05/24 01:39:20;;;;;;;15.77;12.60;;;;;;;;;;4984070;28;20587;-40
2023/05/24 01:41:48;;;;;;;15.23;11.80;;;;;;;;;;4984906;28;20042;-41
2023/05/24 01:44:32;;;;;;;13.05;11.75;;;;;;;;;;4986254;28;20027;-39
2023/05/24 01:47:10;;;;;;;12.55;11.35;;;;;;;;;;4984853;28;20042;-39
2023/05/24 01:49:41;;;;;;;14.60;11.30;;;;;;;;;;4983906;28;20073;-43
2023/05/24 01:52:14;;;;;;;16.00;11.85;;;;;;;;;;4985244;28;20042;-40
2023/05/24 01:54:43;;;;;;;19.25;11.20;;;;;;;;;;4983639;28;20475;-41
2023/05/24 01:57:10;;;;;;;13.20;11.15;;;;;;;;;;4985453;28;20061;-39
2023/05/24 01:59:38;;;;;;;12.40;10.43;;;;;;;;;;4987914;28;20050;-40
2023/05/24 02:02:03;;;;;;;12.20;10.77;;;;;;;;;;4984781;28;20500;-40
2023/05/24 02:04:29;;;;;;;14.32;11.88;;;;;;;;;;4985032;28;20093;-40
2023/05/24 02:06:54;;;;;;;15.45;10.82;;;;;;;;;;4985341;28;20125;-39
2023/05/24 02:09:20;;;;;;;14.88;11.32;;;;;;;;;;4988417;28;20041;-42
2023/05/24 02:11:45;;;;;;;15.43;12.25;;;;;;;;;;4986935;28;20112;-40
2023/05/24 02:14:12;;;;;;;13.15;11.85;;;;;;;;;;4986109;28;20499;-39
2023/05/24 02:16:41;;;;;;;13.27;10.82;;;;;;;;;;4986924;28;20048;-43
2023/05/24 02:19:07;;;;;;;16.70;12.40;;;;;;;;;;4985245;28;20101;-41
2023/05/24 02:21:33;;;;;;;14.27;12.05;;;;;;;;;;4986662;28;20073;-40
2023/05/24 02:23:59;;;;;;;13.43;11.45;;;;;;;;;;4985645;28;20104;-40
2023/05/24 02:26:24;;;;;;;13.07;10.85;;;;;;;;;;4984340;28;20042;-42
2023/05/24 02:28:50;;;;;;;16.65;11.15;;;;;;;;;;4989014;28;20500;-42
2023/05/24 02:31:15;;;;;;;12.02;10.68;;;;;;;;;;4985120;28;20073;-40
2023/05/24 02:33:41;;;;;;;16.38;11.00;;;;;;;;;;4986808;28;20276;-40
2023/05/24 02:36:07;;;;;;;12.00;10.80;;;;;;;;;;4984563;28;20034;-40
2023/05/24 02:38:32;;;;;;;20.13;11.07;;;;;;;;;;4985942;28;20078;-40
2023/05/24 02:40:57;;;;;;;17.55;10.82;;;;;;;;;;4984844;28;20035;-43
2023/05/24 02:43:23;;;;;;;15.57;10.93;;;;;;;;;;4986075;28;20037;-40
2023/05/24 02:45:48;;;;;;;11.52;10.32;;;;;;;;;;4985914;28;20093;-40
2023/05/24 02:48:13;;;;;;;12.23;10.48;;;;;;;;;;4984832;28;20030;-40
2023/05/24 02:50:39;;;;;;;13.57;11.23;;;;;;;;;;4984730;28;20042;-39
2023/05/24 02:53:05;;;;;;;12.52;10.48;;;;;;;;;;4986906;28;20037;-41
2023/05/24 02:55:31;;;;;;;14.40;11.15;;;;;;;;;;4985578;28;20031;-42
2023/05/24 02:57:56;;;;;;;13.18;10.70;;;;;;;;;;4983999;28;20021;-41
2023/05/24 03:00:22;;;;;;;12.20;10.90;;;;;;;;;;4983650;28;20034;-42
2023/05/24 03:02:49;;;;;;;13.15;11.68;;;;;;;;;;4983946;28;20026;-43
2023/05/24 03:05:18;;;;;;;16.20;11.02;;;;;;;;;;4983323;28;20412;-40
2023/05/24 03:07:43;;;;;;;17.00;10.30;;;;;;;;;;4984428;28;20057;-42
2023/05/24 03:10:09;;;;;;;13.57;10.40;;;;;;;;;;4984003;28;20030;-40
2023/05/24 03:12:34;;;;;;;11.82;10.23;;;;;;;;;;4983947;28;20048;-42
2023/05/24 03:15:00;;;;;;;16.33;10.52;;;;;;;;;;4981659;28;20019;-40
2023/05/24 03:17:25;;;;;;;11.82;10.50;;;;;;;;;;4982396;28;20038;-40
2023/05/24 03:19:51;;;;;;;14.70;10.48;;;;;;;;;;4984231;28;20382;-39
2023/05/24 03:22:17;;;;;;;13.65;10.57;;;;;;;;;;4981213;28;20043;-40
2023/05/24 03:24:42;;;;;;;11.00;9.75;;;;;;;;;;4985902;28;20806;-41
2023/05/24 03:27:08;;;;;;;10.98;9.50;;;;;;;;;;4981918;28;20057;-39
2023/05/24 03:29:33;;;;;;;10.70;9.48;;;;;;;;;;4982805;28;20033;-41
2023/05/24 03:31:58;;;;;;;13.15;8.55;;;;;;;;;;4983048;28;20483;-41
2023/05/24 03:34:24;;;;;;;8.95;8.05;;;;;;;;;;4983356;28;20036;-43
2023/05/24 03:36:49;;;;;;;8.45;7.75;;;;;;;;;;4984462;28;20089;-40
2023/05/24 03:39:15;;;;;;;14.70;8.40;;;;;;;;;;4987306;28;20034;-42
2023/05/24 03:41:40;;;;;;;9.15;8.18;;;;;;;;;;4986452;28;20140;-40
2023/05/24 03:44:05;;;;;;;10.98;8.18;;;;;;;;;;4985916;28;20031;-40
2023/05/24 03:46:31;;;;;;;13.10;7.85;;;;;;;;;;4982112;28;20042;-42
2023/05/24 03:48:56;;;;;;;8.73;7.88;;;;;;;;;;4982836;28;20141;-41
2023/05/24 03:51:28;;;;;;;10.70;8.60;;;;;;;;;;4984687;28;20561;-41
2023/05/24 03:53:55;;;;;;;8.43;7.63;;;;;;;;;;4984124;28;20061;-41
2023/05/24 03:56:21;;;;;;;9.13;8.32;;;;;;;;;;4982774;28;20045;-41
2023/05/24 03:58:46;;;;;;;10.50;8.25;;;;;;;;;;4984478;28;20031;-39
2023/05/24 04:01:12;;;;;;;9.40;8.45;;;;;;;;;;4982937;28;20073;-40
2023/05/24 04:03:37;;;;;;;9.15;8.25;;;;;;;;;;4986991;28;20080;-41
2023/05/24 04:06:03;;;;;;;8.75;7.70;;;;;;;;;;4985029;28;20559;-40
2023/05/24 04:08:28;;;;;;;10.32;7.80;;;;;;;;;;4985858;28;20034;-39
2023/05/24 04:10:54;;;;;;;8.07;7.35;;;;;;;;;;4984322;28;20035;-40
2023/05/24 04:13:19;;;;;;;11.90;7.63;;;;;;;;;;4985473;28;20034;-40
2023/05/24 04:15:45;;;;;;;9.32;7.57;;;;;;;;;;4986203;28;20134;-39
2023/05/24 04:18:10;;;;;;;12.18;7.35;;;;;;;;;;4984477;28;20026;-40
2023/05/24 04:20:37;;;;;;;11.52;7.53;;;;;;;;;;4982278;28;20031;-40
2023/05/24 04:23:02;;;;;;;11.75;7.57;;;;;;;;;;4983451;28;20035;-41
2023/05/24 04:25:28;;;;;;;10.20;7.30;;;;;;;;;;4983661;28;20369;-40
2023/05/24 04:27:54;;;;;;;8.05;7.13;;;;;;;;;;4986812;28;20029;-40
2023/05/24 04:30:20;;;;;;;7.82;7.03;;;;;;;;;;4985146;28;20405;-44
2023/05/24 04:32:47;;;;;;;9.75;7.38;;;;;;;;;;4983417;28;20443;-41
2023/05/24 04:35:13;;;;;;;10.60;7.65;;;;;;;;;;4983292;28;20036;-40
2023/05/24 04:37:41;;;;;;;9.10;7.25;;;;;;;;;;4981015;28;20161;-40
2023/05/24 04:40:07;;;;;;;10.50;7.60;;;;;;;;;;4985189;28;20030;-41
2023/05/24 04:42:33;;;;;;;9.05;7.18;;;;;;;;;;4983502;28;20451;-40
2023/05/24 04:44:59;;;;;;;7.68;6.97;;;;;;;;;;4984632;28;20031;-41
2023/05/24 04:47:24;;;;;;;7.93;7.18;;;;;;;;;;4981735;28;20134;-40
2023/05/24 04:49:50;;;;;;;8.57;7.20;;;;;;;;;;4984404;28;20022;-39
2023/05/24 04:52:17;;;;;;;8.07;7.18;;;;;;;;;;4984295;28;20534;-40
2023/05/24 04:54:42;;;;;;;8.30;7.28;;;;;;;;;;4985278;28;20029;-40
2023/05/24 04:57:07;;;;;;;8.35;7.30;;;;;;;;;;4986873;28;20034;-45
2023/05/24 04:59:33;;;;;;;8.73;7.68;;;;;;;;;;4988333;28;20030;-39
2023/05/24 05:01:58;;;;;;;8.82;7.32;;;;;;;;;;4986817;28;20132;-43
2023/05/24 05:04:24;;;;;;;10.85;6.93;;;;;;;;;;4988470;28;20015;-41
2023/05/24 05:06:49;;;;;;;11.18;7.25;;;;;;;;;;4985436;28;20038;-44
2023/05/24 05:09:15;;;;;;;7.57;6.95;;;;;;;;;;4986293;28;20121;-45
2023/05/24 05:11:40;;;;;;;8.05;7.25;;;;;;;;;;4983955;28;20162;-42
2023/05/24 05:14:08;;;;;;;17.23;8.38;;;;;;;;;;4989227;28;20022;-40
2023/05/24 05:16:35;;;;;;;7.88;7.13;;;;;;;;;;4989991;28;20069;-44
2023/05/24 05:19:03;;;;;;;7.90;6.95;;;;;;;;;;4987456;28;20034;-40
2023/05/24 05:21:31;;;;;;;7.65;6.90;;;;;;;;;;4986425;28;20054;-40
2023/05/24 05:23:57;;;;;;;9.40;7.40;;;;;;;;;;4987905;28;20030;-43
2023/05/24 05:26:22;;;;;;;9.48;7.30;;;;;;;;;;4986496;28;20129;-40
2023/05/24 05:28:48;;;;;;;11.02;7.30;;;;;;;;;;4990329;28;20030;-40
2023/05/24 05:31:13;;;;;;;9.77;7.38;;;;;;;;;;4987481;28;20057;-40
2023/05/24 05:33:39;;;;;;;10.45;7.30;;;;;;;;;;4987988;28;20431;-40
2023/05/24 05:36:05;;;;;;;8.43;7.50;;;;;;;;;;4986477;28;20100;-41
2023/05/24 05:38:30;;;;;;;8.80;7.05;;;;;;;;;;4987540;28;21403;-42
2023/05/24 05:40:55;;;;;;;7.78;6.97;;;;;;;;;;4987374;28;20057;-43
2023/05/24 05:43:21;;;;;;;9.18;6.78;;;;;;;;;;4986014;28;20391;-42
2023/05/24 05:45:46;;;;;;;8.50;7.25;;;;;;;;;;4984431;28;20058;-41
2023/05/24 05:48:12;;;;;;;8.07;6.93;;;;;;;;;;4987195;28;20039;-40
2023/05/24 05:50:37;;;;;;;7.85;7.15;;;;;;;;;;4985921;28;20022;-40
2023/05/24 05:53:02;;;;;;;7.97;7.13;;;;;;;;;;4987973;28;20077;-43
2023/05/24 05:55:28;;;;;;;8.70;7.53;;;;;;;;;;4987993;28;20026;-40
2023/05/24 05:57:53;;;;;;;7.57;6.95;;;;;;;;;;4986170;28;20435;-41
2023/05/24 06:00:20;;;;;;;6.78;6.18;;;;;;;;;;4987136;28;20034;-40
2023/05/24 06:02:46;;;;;;;12.23;6.82;;;;;;;;;;4984386;28;20042;-40
2023/05/24 06:05:11;;;;;;;10.15;6.90;;;;;;;;;;4986738;28;20092;-40
2023/05/24 06:07:37;;;;;;;9.57;6.88;;;;;;;;;;4986207;28;20043;-41
2023/05/24 06:10:03;;;;;;;14.05;6.70;;;;;;;;;;4987093;28;20035;-42
2023/05/24 06:12:28;;;;;;;16.42;6.95;;;;;;;;;;4985634;28;20141;-39
2023/05/24 06:14:56;;;;;;;15.13;6.57;;;;;;;;;;4980606;28;20391;-40
2023/05/24 06:17:23;;;;;;;10.68;6.03;;;;;;;;;;4984894;28;20084;-40
2023/05/24 06:19:49;;;;;;;7.07;6.35;;;;;;;;;;4986459;28;20035;-45
2023/05/24 06:22:14;;;;;;;8.32;6.82;;;;;;;;;;4985363;28;20046;-40
2023/05/24 06:24:39;;;;;;;15.88;6.90;;;;;;;;;;4986556;28;20085;-40
2023/05/24 06:27:05;;;;;;;16.00;7.60;;;;;;;;;;4986675;28;20034;-40
2023/05/24 06:29:30;;;;;;;12.30;7.55;;;;;;;;;;4988218;28;20026;-40
2023/05/24 06:31:56;;;;;;;25.48;9.00;;;;;;;;;;4982459;28;20523;-44
2023/05/24 06:34:21;;;;;;;18.17;8.68;;;;;;;;;;4986900;28;20439;-41
2023/05/24 06:36:47;;;;;;;21.38;9.55;;;;;;;;;;4988089;28;20126;-42
2023/05/24 06:39:14;;;;;;;16.05;8.27;;;;;;;;;;4985231;28;20026;-45
2023/05/24 06:41:39;;;;;;;20.27;8.00;;;;;;;;;;4983560;28;20042;-41
2023/05/24 06:44:05;;;;;;;20.13;8.38;;;;;;;;;;4987286;28;20022;-42
2023/05/24 06:46:31;;;;;;;17.88;8.02;;;;;;;;;;4983886;28;20042;-41
2023/05/24 06:48:57;;;;;;;15.90;8.68;;;;;;;;;;4983410;28;20101;-41
2023/05/24 06:51:22;;;;;;;17.45;8.45;;;;;;;;;;4984902;28;20053;-41
2023/05/24 06:53:47;;;;;;;15.88;8.85;;;;;;;;;;4985510;28;20089;-42
2023/05/24 06:56:13;;;;;;;12.88;8.23;;;;;;;;;;4984008;28;20488;-41
2023/05/24 06:58:39;;;;;;;7.65;6.75;;;;;;;;;;5015355;28;20124;-41
2023/05/24 07:01:04;;;;;;;12.18;6.97;;;;;;;;;;4987720;28;20050;-45
2023/05/24 07:03:30;;;;;;;12.75;7.40;;;;;;;;;;4987621;28;20479;-41
2023/05/24 07:05:56;;;;;;;7.43;6.07;;;;;;;;;;4981883;28;20057;-47
2023/05/24 07:08:23;;;;;;;8.07;6.85;;;;;;;;;;4986127;28;20476;-43
2023/05/24 07:10:48;;;;;;;10.23;6.90;;;;;;;;;;4984802;28;20034;-45
2023/05/24 07:13:14;;;;;;;22.13;7.03;;;;;;;;;;4987298;28;20459;-42
2023/05/24 07:15:40;;;;;;;12.55;6.95;;;;;;;;;;4983730;28;20039;-43
2023/05/24 07:18:06;;;;;;;5.88;5.38;;;;;;;;;;4986024;28;20045;-44
2023/05/24 07:20:31;;;;;;;6.38;5.63;;;;;;;;;;4984913;28;20515;-42
2023/05/24 07:22:57;;;;;;;8.88;5.80;;;;;;;;;;4983293;28;20102;-42
2023/05/24 07:25:23;;;;;;;7.82;6.30;;;;;;;;;;4984116;28;20038;-41
2023/05/24 07:27:49;;;;;;;7.80;6.00;;;;;;;;;;4987112;28;20106;-43
2023/05/24 07:30:15;;;;;;;7.50;6.13;;;;;;;;;;4982787;28;20030;-43
2023/05/24 07:32:41;;;;;;;7.63;6.35;;;;;;;;;;4984702;28;20050;-41
2023/05/24 07:35:07;;;;;;;9.30;5.97;;;;;;;;;;4983982;28;20018;-41
2023/05/24 07:37:32;;;;;;;8.73;5.93;;;;;;;;;;4983479;28;20081;-42
2023/05/24 07:39:57;;;;;;;10.05;6.70;;;;;;;;;;4981518;28;20018;-43
2023/05/24 07:42:23;;;;;;;8.88;6.80;;;;;;;;;;4985832;28;20039;-47
2023/05/24 07:44:48;;;;;;;9.15;6.70;;;;;;;;;;4982842;28;20451;-43
2023/05/24 07:47:14;;;;;;;6.28;5.72;;;;;;;;;;4984339;28;20066;-43
2023/05/24 07:49:40;;;;;;;6.70;6.10;;;;;;;;;;4986060;28;20043;-44
2023/05/24 07:52:05;;;;;;;8.80;6.18;;;;;;;;;;4985662;28;20050;-41
2023/05/24 07:54:31;;;;;;;8.82;6.68;;;;;;;;;;4984196;28;20375;-41
2023/05/24 07:56:56;;;;;;;11.27;7.13;;;;;;;;;;4984366;28;20088;-41
2023/05/24 07:59:22;;;;;;;7.72;6.75;;;;;;;;;;4985740;28;20054;-42
2023/05/24 08:01:48;;;;;;;8.63;6.45;;;;;;;;;;4988716;28;20074;-42
2023/05/24 08:04:13;;;;;;;8.70;6.53;;;;;;;;;;4987640;28;20070;-40
2023/05/24 08:06:39;;;;;;;9.55;6.72;;;;;;;;;;4982760;28;20046;-45
2023/05/24 08:09:04;;;;;;;7.13;6.35;;;;;;;;;;4985428;28;20539;-41
2023/05/24 08:11:30;;;;;;;14.75;6.75;;;;;;;;;;4983819;28;20046;-43
2023/05/24 08:13:55;;;;;;;8.48;6.80;;;;;;;;;;4982143;28;20053;-42
2023/05/24 08:16:21;;;;;;;12.90;7.53;;;;;;;;;;4983460;28;20039;-42
2023/05/24 08:18:46;;;;;;;10.68;7.47;;;;;;;;;;4983860;28;20026;-42
2023/05/24 08:21:11;;;;;;;19.17;7.85;;;;;;;;;;4984671;28;20057;-47
2023/05/24 08:23:37;;;;;;;12.88;7.90;;;;;;;;;;4985311;28;20031;-44
2023/05/24 08:26:03;;;;;;;12.57;8.40;;;;;;;;;;4983495;28;20461;-44
2023/05/24 08:28:28;;;;;;;16.00;8.27;;;;;;;;;;4988408;28;20061;-42
2023/05/24 08:30:54;;;;;;;14.75;8.43;;;;;;;;;;4986256;28;20038;-42
2023/05/24 08:33:21;;;;;;;12.35;7.53;;;;;;;;;;4989595;28;20030;-42
2023/05/24 08:35:47;;;;;;;11.60;8.18;;;;;;;;;;4985709;28;20046;-42
2023/05/24 08:38:12;;;;;;;9.18;8.30;;;;;;;;;;4988523;28;20391;-42
2023/05/24 08:40:38;;;;;;;12.05;8.70;;;;;;;;;;4988296;28;22064;-41
2023/05/24 08:43:10;;;;;;;12.02;7.88;;;;;;;;;;4988719;28;20033;-42
2023/05/24 08:45:36;;;;;;;12.27;8.10;;;;;;;;;;4987705;28;20030;-42
2023/05/24 08:48:02;;;;;;;11.70;8.65;;;;;;;;;;4986875;28;20030;-42
2023/05/24 08:50:28;;;;;;;15.48;8.55;;;;;;;;;;4986355;28;20038;-42
2023/05/24 08:52:55;;;;;;;16.45;8.00;;;;;;;;;;4987482;28;20034;-42
2023/05/24 08:55:20;;;;;;;13.40;7.75;;;;;;;;;;4987103;28;20422;-40
2023/05/24 08:57:46;;;;;;;15.35;7.80;;;;;;;;;;4988798;28;20105;-44
2023/05/24 09:00:12;;;;;;;18.10;7.97;;;;;;;;;;4991188;28;20073;-46
2023/05/24 09:02:39;;;;;;;10.82;7.60;;;;;;;;;;4989242;28;20042;-44
2023/05/24 09:05:13;;;;;;;12.60;8.18;;;;;;;;;;4988097;28;20121;-41
2023/05/24 09:07:40;;;;;;;9.00;8.05;;;;;;;;;;4987359;28;20549;-44
2023/05/24 09:10:08;;;;;;;10.05;7.85;;;;;;;;;;4986383;28;20030;-47
2023/05/24 09:12:36;;;;;;;9.63;8.20;;;;;;;;;;4987536;28;20038;-42
2023/05/24 09:15:02;;;;;;;10.50;7.53;;;;;;;;;;4985953;28;20537;-42
2023/05/24 09:17:30;;;;;;;10.13;7.63;;;;;;;;;;4986680;28;20395;-42
2023/05/24 09:19:57;;;;;;;13.65;7.47;;;;;;;;;;4987564;28;20475;-42
2023/05/24 09:22:24;;;;;;;8.40;7.50;;;;;;;;;;4985089;28;20141;-45
2023/05/24 09:24:51;;;;;;;12.07;7.57;;;;;;;;;;4989779;28;20483;-43
2023/05/24 09:27:17;;;;;;;10.75;7.15;;;;;;;;;;4988456;28;20057;-43
2023/05/24 09:29:47;;;;;;;12.60;7.72;;;;;;;;;;4986353;28;20092;-44
2023/05/24 09:32:13;;;;;;;13.57;7.70;;;;;;;;;;4987222;28;20058;-42
2023/05/24 09:34:40;;;;;;;10.95;7.10;;;;;;;;;;4984964;28;20031;-44
2023/05/24 09:37:08;;;;;;;11.15;7.68;;;;;;;;;;4987023;28;20042;-44
2023/05/24 09:39:33;;;;;;;11.13;7.22;;;;;;;;;;4983507;28;20035;-44
2023/05/24 09:42:01;;;;;;;8.13;7.32;;;;;;;;;;4986371;28;20531;-44
2023/05/24 09:44:27;;;;;;;13.80;7.78;;;;;;;;;;4984526;28;20037;-44
2023/05/24 09:46:53;;;;;;;8.40;7.60;;;;;;;;;;4987631;28;20046;-42
2023/05/24 09:49:22;;;;;;;11.23;6.20;;;;;;;;;;4987543;28;20160;-46
2023/05/24 09:51:48;;;;;;;7.82;7.03;;;;;;;;;;4987410;28;20089;-44
2023/05/24 09:54:14;;;;;;;11.77;7.40;;;;;;;;;;4984616;28;20034;-42
2023/05/24 09:56:39;;;;;;;9.20;6.78;;;;;;;;;;4987295;28;20525;-43
2023/05/24 09:59:08;;;;;;;9.75;6.97;;;;;;;;;;4988086;28;20030;-44
2023/05/24 10:01:34;;;;;;;8.77;7.50;;;;;;;;;;4985976;28;20121;-44
2023/05/24 10:04:01;;;;;;;8.70;7.65;;;;;;;;;;4985471;28;20030;-43
2023/05/24 10:06:28;;;;;;;8.05;7.25;;;;;;;;;;4986787;28;20053;-45
2023/05/24 10:08:55;;;;;;;12.88;7.82;;;;;;;;;;4988809;28;20030;-44
2023/05/24 10:11:21;;;;;;;15.63;7.55;;;;;;;;;;4982519;28;20137;-44
2023/05/24 10:13:48;;;;;;;11.73;7.15;;;;;;;;;;4989575;28;20480;-44
2023/05/24 10:16:15;;;;;;;8.68;7.88;;;;;;;;;;4987617;28;20431;-43
2023/05/24 10:18:40;;;;;;;7.97;7.28;;;;;;;;;;4984764;28;20093;-42
2023/05/24 10:21:08;;;;;;;11.85;7.97;;;;;;;;;;4984647;28;20050;-42
2023/05/24 10:23:37;;;;;;;10.45;8.68;;;;;;;;;;4984141;28;20031;-47
2023/05/24 10:26:08;;;;;;;9.82;7.80;;;;;;;;;;4986363;28;20030;-45
2023/05/24 10:28:41;;;;;;;12.23;8.70;;;;;;;;;;4985058;28;20045;-42
2023/05/24 10:31:11;;;;;;;11.30;8.45;;;;;;;;;;4984015;28;20475;-43
2023/05/24 10:33:38;;;;;;;10.90;8.52;;;;;;;;;;4985760;28;20390;-42
2023/05/24 10:36:06;;;;;;;8.95;7.63;;;;;;;;;;4985609;28;20080;-47
2023/05/24 10:38:32;;;;;;;8.73;7.82;;;;;;;;;;4986967;28;20077;-48
2023/05/24 10:40:58;;;;;;;9.40;8.05;;;;;;;;;;4985379;28;20562;-43
2023/05/24 10:43:24;;;;;;;11.10;8.18;;;;;;;;;;4987264;28;20529;-42
2023/05/24 10:45:50;;;;;;;10.52;7.72;;;;;;;;;;4984283;28;20038;-42
2023/05/24 10:48:16;;;;;;;12.93;9.27;;;;;;;;;;4984748;28;20395;-42
2023/05/24 10:50:42;;;;;;;13.52;8.40;;;;;;;;;;4984596;28;20058;-41
2023/05/24 10:53:26;;;;;;;10.20;8.18;;;;;;;;;;4985439;28;20022;-43
2023/05/24 10:55:56;;;;;;;10.18;8.23;;;;;;;;;;4984475;28;20512;-42
2023/05/24 10:59:05;;;;;;;12.77;8.13;;;;;;;;;;4986113;28;20117;-42
2023/05/24 11:01:32;;;;;;;11.43;8.27;;;;;;;;;;4985033;28;20042;-43
2023/05/24 11:04:14;;;;;;;11.15;8.18;;;;;;;;;;4986352;28;20814;-43
2023/05/24 11:06:56;;;;;;;11.45;7.43;;;;;;;;;;4984046;28;20042;-43
2023/05/24 11:09:23;;;;;;;15.60;8.02;;;;;;;;;;4983800;28;20034;-42
2023/05/24 11:11:52;;;;;;;8.35;6.88;;;;;;;;;;4981809;28;20037;-42
2023/05/24 11:14:21;;;;;;;8.43;6.72;;;;;;;;;;4985836;28;20186;-42
2023/05/24 11:16:48;;;;;;;10.57;7.22;;;;;;;;;;4984506;28;20051;-42
2023/05/24 11:19:18;;;;;;;9.02;6.50;;;;;;;;;;4985163;28;20045;-44
2023/05/24 11:21:45;;;;;;;7.63;6.75;;;;;;;;;;4983344;28;20122;-43
2023/05/24 11:24:11;;;;;;;10.57;7.40;;;;;;;;;;4983895;28;20073;-42
2023/05/24 11:26:36;;;;;;;8.68;7.18;;;;;;;;;;4985535;28;20097;-43
2023/05/24 11:29:03;;;;;;;9.63;6.82;;;;;;;;;;4984337;28;20022;-42
2023/05/24 11:31:29;;;;;;;9.13;7.45;;;;;;;;;;4982894;28;20407;-42
2023/05/24 11:33:54;;;;;;;9.32;7.78;;;;;;;;;;4986018;28;20041;-43
2023/05/24 11:36:20;;;;;;;15.68;7.68;;;;;;;;;;4984902;28;20043;-45
2023/05/24 11:38:49;;;;;;;10.25;7.30;;;;;;;;;;4983239;28;20034;-42
2023/05/24 11:41:16;;;;;;;14.77;7.55;;;;;;;;;;4983329;28;20081;-42
2023/05/24 11:43:43;;;;;;;11.13;7.63;;;;;;;;;;4980289;28;20096;-43
2023/05/24 11:46:08;;;;;;;18.65;7.93;;;;;;;;;;4986357;28;20035;-45
2023/05/24 11:48:34;;;;;;;9.85;7.85;;;;;;;;;;4984021;28;20038;-45
2023/05/24 11:50:59;;;;;;;8.80;7.90;;;;;;;;;;4985525;28;20050;-42
2023/05/24 11:53:25;;;;;;;14.25;7.72;;;;;;;;;;4985601;28;20022;-42
2023/05/24 11:55:53;;;;;;;9.23;7.70;;;;;;;;;;4985531;28;20102;-42
2023/05/24 11:58:28;;;;;;;11.05;7.60;;;;;;;;;;4981907;28;20027;-42
2023/05/24 12:00:53;;;;;;;8.57;7.65;;;;;;;;;;4981082;28;20078;-41
2023/05/24 12:03:20;;;;;;;8.52;7.35;;;;;;;;;;4988139;28;20049;-44
2023/05/24 12:05:45;;;;;;;10.13;7.53;;;;;;;;;;4983509;28;20042;-42
2023/05/24 12:08:12;;;;;;;10.57;8.40;;;;;;;;;;4983837;28;20495;-43
2023/05/24 12:10:39;;;;;;;8.60;7.43;;;;;;;;;;4984321;28;20053;-43
2023/05/24 12:13:16;;;;;;;14.93;7.88;;;;;;;;;;4984783;28;20139;-43
2023/05/24 12:15:42;;;;;;;10.95;7.68;;;;;;;;;;4982491;28;20113;-43
2023/05/24 12:18:18;;;;;;;11.23;7.65;;;;;;;;;;4985174;28;20365;-44
2023/05/24 12:20:45;;;;;;;11.68;7.65;;;;;;;;;;4982833;28;20034;-45
2023/05/24 12:23:11;;;;;;;11.10;7.63;;;;;;;;;;4985221;28;20038;-42
2023/05/24 12:25:37;;;;;;;10.15;7.90;;;;;;;;;;4986738;28;20387;-44
2023/05/24 12:28:02;;;;;;;8.52;7.65;;;;;;;;;;4984600;28;20022;-46
2023/05/24 12:30:29;;;;;;;18.70;7.35;;;;;;;;;;4980062;28;20407;-45
2023/05/24 12:32:54;;;;;;;10.00;7.53;;;;;;;;;;4983665;28;20026;-42
2023/05/24 12:35:20;;;;;;;13.65;7.90;;;;;;;;;;4981135;28;20034;-46
2023/05/24 12:37:47;;;;;;;15.38;8.20;;;;;;;;;;4985308;28;20030;-42
2023/05/24 12:40:19;;;;;;;10.40;8.60;;;;;;;;;;4985360;28;20057;-41
2023/05/24 12:42:56;;;;;;;9.70;7.50;;;;;;;;;;4985329;28;20054;-42
2023/05/24 12:45:26;;;;;;;14.05;7.93;;;;;;;;;;4982701;28;20030;-43
2023/05/24 12:47:53;;;;;;;14.40;8.13;;;;;;;;;;4984216;28;20031;-42
2023/05/24 12:50:20;;;;;;;11.27;7.63;;;;;;;;;;4982947;28;20133;-42
2023/05/24 12:52:46;;;;;;;11.00;8.20;;;;;;;;;;4980182;28;20108;-43
2023/05/24 12:55:13;;;;;;;13.40;8.63;;;;;;;;;;4984635;28;20057;-43
2023/05/24 12:57:39;;;;;;;17.30;8.27;;;;;;;;;;4981057;28;20050;-42
2023/05/24 13:00:06;;;;;;;10.95;8.40;;;;;;;;;;4987223;28;20035;-45
2023/05/24 13:02:32;;;;;;;13.63;9.10;;;;;;;;;;4984163;28;20129;-45
2023/05/24 13:04:57;;;;;;;10.63;8.57;;;;;;;;;;4982876;28;20034;-42
2023/05/24 13:07:22;;;;;;;15.25;8.05;;;;;;;;;;4979445;28;20495;-43
2023/05/24 13:09:48;;;;;;;10.40;8.30;;;;;;;;;;4982632;28;20027;-44
2023/05/24 13:12:13;;;;;;;14.98;8.32;;;;;;;;;;4983833;28;20095;-44
2023/05/24 13:14:39;;;;;;;9.50;8.15;;;;;;;;;;4983339;28;20030;-43
2023/05/24 13:17:05;;;;;;;11.23;8.82;;;;;;;;;;4984976;28;20113;-46
2023/05/24 13:19:30;;;;;;;12.05;7.95;;;;;;;;;;4989240;28;20030;-42
2023/05/24 13:21:56;;;;;;;10.15;9.15;;;;;;;;;;4987121;28;20525;-44
2023/05/24 13:24:22;;;;;;;20.77;8.55;;;;;;;;;;4988130;28;20035;-42
2023/05/24 13:26:47;;;;;;;10.57;7.65;;;;;;;;;;4985456;28;20031;-43
2023/05/24 13:29:13;;;;;;;13.43;8.43;;;;;;;;;;4987185;28;20038;-42
2023/05/24 13:31:39;;;;;;;17.70;8.27;;;;;;;;;;4984924;28;20038;-44
2023/05/24 13:34:06;;;;;;;9.82;8.07;;;;;;;;;;4988283;28;20049;-42
2023/05/24 13:36:31;;;;;;;11.63;7.85;;;;;;;;;;4986515;28;20046;-42
2023/05/24 13:38:58;;;;;;;13.07;8.15;;;;;;;;;;4986157;28;20501;-42
2023/05/24 13:41:24;;;;;;;13.32;7.72;;;;;;;;;;4984233;28;20424;-42
2023/05/24 13:43:51;;;;;;;10.35;8.13;;;;;;;;;;4985558;28;20026;-42
2023/05/24 13:46:17;;;;;;;10.57;8.38;;;;;;;;;;4986258;28;20051;-42
2023/05/24 13:48:42;;;;;;;14.85;8.27;;;;;;;;;;4988046;28;20030;-45
2023/05/24 13:51:07;;;;;;;14.50;8.85;;;;;;;;;;4986867;28;20046;-42
2023/05/24 13:53:33;;;;;;;11.05;8.32;;;;;;;;;;4986114;28;20451;-43
2023/05/24 13:55:58;;;;;;;10.23;7.65;;;;;;;;;;4988323;28;20041;-44
2023/05/24 13:58:24;;;;;;;12.68;8.00;;;;;;;;;;4985157;28;20056;-47
2023/05/24 14:00:49;;;;;;;17.08;8.82;;;;;;;;;;4988267;28;20035;-42
2023/05/24 14:03:15;;;;;;;11.57;8.18;;;;;;;;;;4987458;28;20137;-42
2023/05/24 14:05:40;;;;;;;12.73;8.38;;;;;;;;;;4985328;28;20423;-42
2023/05/24 14:08:06;;;;;;;16.67;8.50;;;;;;;;;;4986423;28;20109;-41
2023/05/24 14:10:35;;;;;;;17.77;9.18;;;;;;;;;;4986640;28;20386;-41
2023/05/24 14:13:04;;;;;;;9.57;8.60;;;;;;;;;;4982515;28;20034;-41
2023/05/24 14:15:30;;;;;;;9.50;8.32;;;;;;;;;;4986492;28;20053;-41
2023/05/24 14:17:57;;;;;;;10.55;7.90;;;;;;;;;;4982140;28;20038;-42
2023/05/24 14:20:23;;;;;;;11.18;8.30;;;;;;;;;;4984510;28;20026;-43
2023/05/24 14:22:48;;;;;;;12.00;8.27;;;;;;;;;;4984947;28;20490;-44
2023/05/24 14:25:13;;;;;;;14.77;8.60;;;;;;;;;;4987310;28;20042;-45
2023/05/24 14:27:40;;;;;;;14.77;9.30;;;;;;;;;;4985885;28;20626;-42
2023/05/24 14:30:06;;;;;;;12.30;8.85;;;;;;;;;;4983638;28;20598;-48